sensor_id;sensor_type;location;lat;lon;timestamp;P1;durP1;ratioP1;P2;durP2;ratioP2
50012;SDS011;35901;48.694;9.476;2024-03-17T00:01:09;30.50;;;21.67;;
50012;SDS011;35901;48.694;9.476;2024-03-17T00:03:37;30.07;;;20.23;;
50012;SDS011;35901;48.694;9.476;2024-03-17T00:06:03;32.90;;;22.17;;
50012;SDS011;35901;48.694;9.476;2024-03-17T00:08:29;28.83;;;19.50;;
50012;SDS011;35901;48.694;9.476;2024-03-17T00:10:55;25.87;;;19.57;;
50012;SDS011;35901;48.694;9.476;2024-03-17T00:13:22;20.80;;;16.37;;
50012;SDS011;35901;48.694;9.476;2024-03-17T00:15:49;25.67;;;19.10;;
50012;SDS011;35901;48.694;9.476;2024-03-17T00:18:15;21.23;;;17.00;;
50012;SDS011;35901;48.694;9.476;2024-03-17T00:20:41;23.23;;;17.70;;
50012;SDS011;35901;48.694;9.476;2024-03-17T00:23:08;22.23;;;16.60;;
50012;SDS011;35901;48.694;9.476;2024-03-17T00:25:36;27.70;;;19.60;;
50012;SDS011;35901;48.694;9.476;2024-03-17T00:28:03;21.97;;;17.50;;
50012;SDS011;35901;48.694;9.476;2024-03-17T00:30:29;30.80;;;20.27;;
50012;SDS011;35901;48.694;9.476;2024-03-17T00:32:56;27.77;;;19.53;;
50012;SDS011;35901;48.694;9.476;2024-03-17T00:35:23;25.10;;;18.77;;
50012;SDS011;35901;48.694;9.476;2024-03-17T00:37:50;25.77;;;19.27;;
50012;SDS011;35901;48.694;9.476;2024-03-17T00:40:19;26.50;;;18.77;;
50012;SDS011;35901;48.694;9.476;2024-03-17T00:42:46;23.53;;;18.43;;
50012;SDS011;35901;48.694;9.476;2024-03-17T00:45:11;26.73;;;19.07;;
50012;SDS011;35901;48.694;9.476;2024-03-17T00:47:37;24.30;;;18.33;;
50012;SDS011;35901;48.694;9.476;2024-03-17T00:50:04;23.37;;;17.57;;
50012;SDS011;35901;48.694;9.476;2024-03-17T00:52:31;23.17;;;17.00;;
50012;SDS011;35901;48.694;9.476;2024-03-17T00:54:57;23.20;;;17.27;;
50012;SDS011;35901;48.694;9.476;2024-03-17T00:57:23;25.47;;;17.33;;
50012;SDS011;35901;48.694;9.476;2024-03-17T00:59:49;24.03;;;16.40;;
50012;SDS011;35901;48.694;9.476;2024-03-17T01:02:16;20.27;;;16.23;;
50012;SDS011;35901;48.694;9.476;2024-03-17T01:04:44;20.80;;;15.70;;
50012;SDS011;35901;48.694;9.476;2024-03-17T01:07:11;22.83;;;15.90;;
50012;SDS011;35901;48.694;9.476;2024-03-17T01:09:37;19.77;;;14.60;;
50012;SDS011;35901;48.694;9.476;2024-03-17T01:12:03;25.57;;;16.33;;
50012;SDS011;35901;48.694;9.476;2024-03-17T01:14:30;24.17;;;17.27;;
50012;SDS011;35901;48.694;9.476;2024-03-17T01:16:56;22.43;;;15.70;;
50012;SDS011;35901;48.694;9.476;2024-03-17T01:19:23;25.57;;;16.10;;
50012;SDS011;35901;48.694;9.476;2024-03-17T01:21:50;24.17;;;16.80;;
50012;SDS011;35901;48.694;9.476;2024-03-17T01:24:17;22.47;;;15.70;;
50012;SDS011;35901;48.694;9.476;2024-03-17T01:26:43;22.20;;;16.93;;
50012;SDS011;35901;48.694;9.476;2024-03-17T01:29:10;22.30;;;16.20;;
50012;SDS011;35901;48.694;9.476;2024-03-17T01:31:36;22.13;;;16.37;;
50012;SDS011;35901;48.694;9.476;2024-03-17T01:34:02;25.03;;;16.63;;
50012;SDS011;35901;48.694;9.476;2024-03-17T01:36:28;27.53;;;17.03;;
50012;SDS011;35901;48.694;9.476;2024-03-17T01:38:54;26.37;;;17.63;;
50012;SDS011;35901;48.694;9.476;2024-03-17T01:41:19;22.80;;;15.60;;
50012;SDS011;35901;48.694;9.476;2024-03-17T01:43:45;22.27;;;16.93;;
50012;SDS011;35901;48.694;9.476;2024-03-17T01:46:12;19.13;;;14.87;;
50012;SDS011;35901;48.694;9.476;2024-03-17T01:48:42;20.20;;;16.17;;
50012;SDS011;35901;48.694;9.476;2024-03-17T01:51:08;24.57;;;15.80;;
50012;SDS011;35901;48.694;9.476;2024-03-17T01:53:36;21.23;;;16.17;;
50012;SDS011;35901;48.694;9.476;2024-03-17T01:56:04;16.20;;;13.13;;
50012;SDS011;35901;48.694;9.476;2024-03-17T01:58:30;17.10;;;13.83;;
50012;SDS011;35901;48.694;9.476;2024-03-17T02:00:56;25.40;;;17.30;;
50012;SDS011;35901;48.694;9.476;2024-03-17T02:03:22;22.27;;;16.33;;
50012;SDS011;35901;48.694;9.476;2024-03-17T02:05:48;21.87;;;15.43;;
50012;SDS011;35901;48.694;9.476;2024-03-17T02:08:14;22.80;;;14.83;;
50012;SDS011;35901;48.694;9.476;2024-03-17T02:10:40;23.80;;;15.70;;
50012;SDS011;35901;48.694;9.476;2024-03-17T02:13:05;18.10;;;13.50;;
50012;SDS011;35901;48.694;9.476;2024-03-17T02:15:32;20.40;;;16.00;;
50012;SDS011;35901;48.694;9.476;2024-03-17T02:17:59;21.13;;;14.93;;
50012;SDS011;35901;48.694;9.476;2024-03-17T02:20:25;24.53;;;17.47;;
50012;SDS011;35901;48.694;9.476;2024-03-17T02:23:11;25.73;;;17.33;;
50012;SDS011;35901;48.694;9.476;2024-03-17T02:25:37;21.77;;;16.37;;
50012;SDS011;35901;48.694;9.476;2024-03-17T02:28:03;20.63;;;15.90;;
50012;SDS011;35901;48.694;9.476;2024-03-17T02:30:29;17.23;;;13.33;;
50012;SDS011;35901;48.694;9.476;2024-03-17T02:32:55;17.93;;;13.40;;
50012;SDS011;35901;48.694;9.476;2024-03-17T02:35:21;17.47;;;13.07;;
50012;SDS011;35901;48.694;9.476;2024-03-17T02:37:47;16.13;;;12.60;;
50012;SDS011;35901;48.694;9.476;2024-03-17T02:40:13;16.80;;;13.67;;
50012;SDS011;35901;48.694;9.476;2024-03-17T02:42:39;23.23;;;15.37;;
50012;SDS011;35901;48.694;9.476;2024-03-17T02:45:07;19.70;;;14.03;;
50012;SDS011;35901;48.694;9.476;2024-03-17T02:47:33;19.00;;;13.73;;
50012;SDS011;35901;48.694;9.476;2024-03-17T02:50:00;19.17;;;14.13;;
50012;SDS011;35901;48.694;9.476;2024-03-17T02:52:26;23.27;;;16.97;;
50012;SDS011;35901;48.694;9.476;2024-03-17T02:54:52;23.43;;;15.67;;
50012;SDS011;35901;48.694;9.476;2024-03-17T02:57:21;21.23;;;15.43;;
50012;SDS011;35901;48.694;9.476;2024-03-17T02:59:50;19.27;;;13.90;;
50012;SDS011;35901;48.694;9.476;2024-03-17T03:02:16;19.10;;;14.40;;
50012;SDS011;35901;48.694;9.476;2024-03-17T03:04:42;20.63;;;16.07;;
50012;SDS011;35901;48.694;9.476;2024-03-17T03:07:08;19.37;;;15.00;;
50012;SDS011;35901;48.694;9.476;2024-03-17T03:09:34;17.33;;;13.07;;
50012;SDS011;35901;48.694;9.476;2024-03-17T03:12:00;20.60;;;15.03;;
50012;SDS011;35901;48.694;9.476;2024-03-17T03:14:29;22.43;;;14.20;;
50012;SDS011;35901;48.694;9.476;2024-03-17T03:16:55;19.40;;;14.70;;
50012;SDS011;35901;48.694;9.476;2024-03-17T03:19:21;21.47;;;14.70;;
50012;SDS011;35901;48.694;9.476;2024-03-17T03:21:47;22.10;;;15.80;;
50012;SDS011;35901;48.694;9.476;2024-03-17T03:24:16;22.63;;;15.67;;
50012;SDS011;35901;48.694;9.476;2024-03-17T03:26:42;24.87;;;15.50;;
50012;SDS011;35901;48.694;9.476;2024-03-17T03:29:08;22.33;;;15.10;;
50012;SDS011;35901;48.694;9.476;2024-03-17T03:31:35;22.93;;;14.97;;
50012;SDS011;35901;48.694;9.476;2024-03-17T03:34:01;24.23;;;15.50;;
50012;SDS011;35901;48.694;9.476;2024-03-17T03:36:28;20.87;;;14.90;;
50012;SDS011;35901;48.694;9.476;2024-03-17T03:38:54;21.93;;;14.73;;
50012;SDS011;35901;48.694;9.476;2024-03-17T03:41:22;22.10;;;14.47;;
50012;SDS011;35901;48.694;9.476;2024-03-17T03:43:49;17.93;;;13.30;;
50012;SDS011;35901;48.694;9.476;2024-03-17T03:46:15;20.13;;;14.50;;
50012;SDS011;35901;48.694;9.476;2024-03-17T03:48:41;22.23;;;15.27;;
50012;SDS011;35901;48.694;9.476;2024-03-17T03:51:07;22.13;;;15.57;;
50012;SDS011;35901;48.694;9.476;2024-03-17T03:53:34;19.50;;;14.20;;
50012;SDS011;35901;48.694;9.476;2024-03-17T03:56:04;17.67;;;13.00;;
50012;SDS011;35901;48.694;9.476;2024-03-17T03:58:40;24.03;;;14.87;;
50012;SDS011;35901;48.694;9.476;2024-03-17T04:01:08;21.73;;;14.90;;
50012;SDS011;35901;48.694;9.476;2024-03-17T04:03:36;22.53;;;14.63;;
50012;SDS011;35901;48.694;9.476;2024-03-17T04:06:03;20.30;;;14.50;;
50012;SDS011;35901;48.694;9.476;2024-03-17T04:08:33;22.20;;;15.00;;
50012;SDS011;35901;48.694;9.476;2024-03-17T04:11:00;23.40;;;14.97;;
50012;SDS011;35901;48.694;9.476;2024-03-17T04:13:27;20.07;;;15.03;;
50012;SDS011;35901;48.694;9.476;2024-03-17T04:15:54;21.60;;;14.37;;
50012;SDS011;35901;48.694;9.476;2024-03-17T04:18:24;25.27;;;16.20;;
50012;SDS011;35901;48.694;9.476;2024-03-17T04:20:56;25.43;;;16.57;;
50012;SDS011;35901;48.694;9.476;2024-03-17T04:23:22;23.87;;;15.27;;
50012;SDS011;35901;48.694;9.476;2024-03-17T04:25:50;25.83;;;15.67;;
50012;SDS011;35901;48.694;9.476;2024-03-17T04:28:17;23.00;;;15.87;;
50012;SDS011;35901;48.694;9.476;2024-03-17T04:30:43;21.17;;;14.60;;
50012;SDS011;35901;48.694;9.476;2024-03-17T04:33:10;24.70;;;16.40;;
50012;SDS011;35901;48.694;9.476;2024-03-17T04:35:36;20.87;;;14.47;;
50012;SDS011;35901;48.694;9.476;2024-03-17T04:38:02;24.13;;;16.87;;
50012;SDS011;35901;48.694;9.476;2024-03-17T04:40:28;25.40;;;16.83;;
50012;SDS011;35901;48.694;9.476;2024-03-17T04:42:54;23.03;;;14.80;;
50012;SDS011;35901;48.694;9.476;2024-03-17T04:45:20;23.23;;;15.60;;
50012;SDS011;35901;48.694;9.476;2024-03-17T04:47:45;19.67;;;14.57;;
50012;SDS011;35901;48.694;9.476;2024-03-17T04:50:12;25.23;;;16.63;;
50012;SDS011;35901;48.694;9.476;2024-03-17T04:52:38;24.20;;;16.27;;
50012;SDS011;35901;48.694;9.476;2024-03-17T04:55:04;24.87;;;16.87;;
50012;SDS011;35901;48.694;9.476;2024-03-17T04:57:29;27.73;;;16.60;;
50012;SDS011;35901;48.694;9.476;2024-03-17T04:59:55;25.17;;;16.43;;
50012;SDS011;35901;48.694;9.476;2024-03-17T05:02:21;27.60;;;18.33;;
50012;SDS011;35901;48.694;9.476;2024-03-17T05:04:48;28.23;;;17.10;;
50012;SDS011;35901;48.694;9.476;2024-03-17T05:07:16;23.10;;;16.10;;
50012;SDS011;35901;48.694;9.476;2024-03-17T05:09:42;26.37;;;16.20;;
50012;SDS011;35901;48.694;9.476;2024-03-17T05:12:11;27.93;;;16.13;;
50012;SDS011;35901;48.694;9.476;2024-03-17T05:14:37;29.03;;;17.10;;
50012;SDS011;35901;48.694;9.476;2024-03-17T05:17:03;27.27;;;16.23;;
50012;SDS011;35901;48.694;9.476;2024-03-17T05:19:28;22.60;;;15.40;;
50012;SDS011;35901;48.694;9.476;2024-03-17T05:21:54;25.30;;;15.00;;
50012;SDS011;35901;48.694;9.476;2024-03-17T05:24:19;21.03;;;14.83;;
50012;SDS011;35901;48.694;9.476;2024-03-17T05:26:45;25.23;;;16.20;;
50012;SDS011;35901;48.694;9.476;2024-03-17T05:29:11;29.03;;;17.73;;
50012;SDS011;35901;48.694;9.476;2024-03-17T05:31:37;24.70;;;15.67;;
50012;SDS011;35901;48.694;9.476;2024-03-17T05:34:08;26.73;;;17.67;;
50012;SDS011;35901;48.694;9.476;2024-03-17T05:36:35;21.03;;;14.90;;
50012;SDS011;35901;48.694;9.476;2024-03-17T05:39:02;24.43;;;15.60;;
50012;SDS011;35901;48.694;9.476;2024-03-17T05:41:28;22.43;;;14.90;;
50012;SDS011;35901;48.694;9.476;2024-03-17T05:43:53;26.47;;;15.93;;
50012;SDS011;35901;48.694;9.476;2024-03-17T05:46:23;27.40;;;17.77;;
50012;SDS011;35901;48.694;9.476;2024-03-17T05:48:51;29.23;;;16.47;;
50012;SDS011;35901;48.694;9.476;2024-03-17T05:51:16;25.97;;;16.20;;
50012;SDS011;35901;48.694;9.476;2024-03-17T05:53:42;19.20;;;13.07;;
50012;SDS011;35901;48.694;9.476;2024-03-17T05:56:09;22.80;;;15.20;;
50012;SDS011;35901;48.694;9.476;2024-03-17T05:58:37;26.27;;;16.23;;
50012;SDS011;35901;48.694;9.476;2024-03-17T06:01:03;25.13;;;15.73;;
50012;SDS011;35901;48.694;9.476;2024-03-17T06:03:30;25.70;;;16.47;;
50012;SDS011;35901;48.694;9.476;2024-03-17T06:05:58;24.13;;;16.60;;
50012;SDS011;35901;48.694;9.476;2024-03-17T06:08:24;23.60;;;16.10;;
50012;SDS011;35901;48.694;9.476;2024-03-17T06:10:50;19.37;;;14.10;;
50012;SDS011;35901;48.694;9.476;2024-03-17T06:13:15;20.63;;;14.17;;
50012;SDS011;35901;48.694;9.476;2024-03-17T06:15:42;20.53;;;13.63;;
50012;SDS011;35901;48.694;9.476;2024-03-17T06:18:11;16.90;;;12.77;;
50012;SDS011;35901;48.694;9.476;2024-03-17T06:20:42;18.10;;;13.63;;
50012;SDS011;35901;48.694;9.476;2024-03-17T06:23:12;20.07;;;14.40;;
50012;SDS011;35901;48.694;9.476;2024-03-17T06:25:41;20.43;;;14.83;;
50012;SDS011;35901;48.694;9.476;2024-03-17T06:28:08;18.10;;;14.17;;
50012;SDS011;35901;48.694;9.476;2024-03-17T06:30:35;18.07;;;13.20;;
50012;SDS011;35901;48.694;9.476;2024-03-17T06:33:02;15.70;;;12.57;;
50012;SDS011;35901;48.694;9.476;2024-03-17T06:35:28;10.77;;;9.40;;
50012;SDS011;35901;48.694;9.476;2024-03-17T06:37:58;10.47;;;8.63;;
50012;SDS011;35901;48.694;9.476;2024-03-17T06:40:26;9.43;;;8.43;;
50012;SDS011;35901;48.694;9.476;2024-03-17T06:42:51;11.13;;;9.47;;
50012;SDS011;35901;48.694;9.476;2024-03-17T06:45:18;15.20;;;11.63;;
50012;SDS011;35901;48.694;9.476;2024-03-17T06:47:47;14.83;;;12.17;;
50012;SDS011;35901;48.694;9.476;2024-03-17T06:50:14;15.00;;;12.60;;
50012;SDS011;35901;48.694;9.476;2024-03-17T06:52:40;13.97;;;10.97;;
50012;SDS011;35901;48.694;9.476;2024-03-17T06:55:05;10.50;;;9.50;;
50012;SDS011;35901;48.694;9.476;2024-03-17T06:57:34;10.43;;;8.03;;
50012;SDS011;35901;48.694;9.476;2024-03-17T07:00:00;8.20;;;7.33;;
50012;SDS011;35901;48.694;9.476;2024-03-17T07:02:27;8.83;;;8.03;;
50012;SDS011;35901;48.694;9.476;2024-03-17T07:04:53;9.10;;;8.17;;
50012;SDS011;35901;48.694;9.476;2024-03-17T07:07:20;7.97;;;7.17;;
50012;SDS011;35901;48.694;9.476;2024-03-17T07:09:46;7.23;;;6.53;;
50012;SDS011;35901;48.694;9.476;2024-03-17T07:12:12;6.37;;;5.77;;
50012;SDS011;35901;48.694;9.476;2024-03-17T07:14:38;6.80;;;6.20;;
50012;SDS011;35901;48.694;9.476;2024-03-17T07:17:03;6.70;;;6.00;;
50012;SDS011;35901;48.694;9.476;2024-03-17T07:19:29;6.33;;;5.67;;
50012;SDS011;35901;48.694;9.476;2024-03-17T07:21:59;6.43;;;5.60;;
50012;SDS011;35901;48.694;9.476;2024-03-17T07:24:25;6.73;;;5.93;;
50012;SDS011;35901;48.694;9.476;2024-03-17T07:26:50;6.27;;;5.67;;
50012;SDS011;35901;48.694;9.476;2024-03-17T07:29:16;5.50;;;5.00;;
50012;SDS011;35901;48.694;9.476;2024-03-17T07:31:44;6.17;;;5.67;;
50012;SDS011;35901;48.694;9.476;2024-03-17T07:34:10;6.80;;;6.00;;
50012;SDS011;35901;48.694;9.476;2024-03-17T07:36:36;6.57;;;5.93;;
50012;SDS011;35901;48.694;9.476;2024-03-17T07:39:01;6.60;;;6.00;;
50012;SDS011;35901;48.694;9.476;2024-03-17T07:41:27;6.43;;;5.83;;
50012;SDS011;35901;48.694;9.476;2024-03-17T07:43:53;6.97;;;6.00;;
50012;SDS011;35901;48.694;9.476;2024-03-17T07:46:19;6.70;;;6.10;;
50012;SDS011;35901;48.694;9.476;2024-03-17T07:48:44;7.03;;;6.43;;
50012;SDS011;35901;48.694;9.476;2024-03-17T07:51:11;6.27;;;5.77;;
50012;SDS011;35901;48.694;9.476;2024-03-17T07:53:41;6.73;;;6.13;;
50012;SDS011;35901;48.694;9.476;2024-03-17T07:56:08;6.60;;;5.90;;
50012;SDS011;35901;48.694;9.476;2024-03-17T07:58:35;7.10;;;6.03;;
50012;SDS011;35901;48.694;9.476;2024-03-17T08:01:05;6.53;;;5.70;;
50012;SDS011;35901;48.694;9.476;2024-03-17T08:03:33;6.50;;;5.80;;
50012;SDS011;35901;48.694;9.476;2024-03-17T08:06:00;6.60;;;6.00;;
50012;SDS011;35901;48.694;9.476;2024-03-17T08:08:27;6.07;;;5.57;;
50012;SDS011;35901;48.694;9.476;2024-03-17T08:10:53;6.87;;;6.17;;
50012;SDS011;35901;48.694;9.476;2024-03-17T08:13:19;5.80;;;5.30;;
50012;SDS011;35901;48.694;9.476;2024-03-17T08:15:46;8.33;;;6.00;;
50012;SDS011;35901;48.694;9.476;2024-03-17T08:18:19;6.83;;;5.93;;
50012;SDS011;35901;48.694;9.476;2024-03-17T08:20:45;6.10;;;5.53;;
50012;SDS011;35901;48.694;9.476;2024-03-17T08:23:11;6.97;;;6.23;;
50012;SDS011;35901;48.694;9.476;2024-03-17T08:25:37;5.20;;;4.70;;
50012;SDS011;35901;48.694;9.476;2024-03-17T08:28:03;5.10;;;4.70;;
50012;SDS011;35901;48.694;9.476;2024-03-17T08:30:29;5.10;;;4.67;;
50012;SDS011;35901;48.694;9.476;2024-03-17T08:32:55;5.50;;;5.00;;
50012;SDS011;35901;48.694;9.476;2024-03-17T08:35:21;6.60;;;4.80;;
50012;SDS011;35901;48.694;9.476;2024-03-17T08:37:47;5.20;;;4.63;;
50012;SDS011;35901;48.694;9.476;2024-03-17T08:40:13;6.50;;;5.40;;
50012;SDS011;35901;48.694;9.476;2024-03-17T08:42:39;5.13;;;4.67;;
50012;SDS011;35901;48.694;9.476;2024-03-17T08:45:05;5.87;;;5.37;;
50012;SDS011;35901;48.694;9.476;2024-03-17T08:47:31;5.27;;;4.80;;
50012;SDS011;35901;48.694;9.476;2024-03-17T08:49:57;4.73;;;4.37;;
50012;SDS011;35901;48.694;9.476;2024-03-17T08:52:32;5.00;;;4.60;;
50012;SDS011;35901;48.694;9.476;2024-03-17T08:54:58;5.23;;;4.83;;
50012;SDS011;35901;48.694;9.476;2024-03-17T08:57:24;5.27;;;4.80;;
50012;SDS011;35901;48.694;9.476;2024-03-17T08:59:50;5.20;;;4.70;;
50012;SDS011;35901;48.694;9.476;2024-03-17T09:02:19;4.27;;;3.93;;
50012;SDS011;35901;48.694;9.476;2024-03-17T09:04:49;4.30;;;3.90;;
50012;SDS011;35901;48.694;9.476;2024-03-17T09:07:14;4.40;;;4.00;;
50012;SDS011;35901;48.694;9.476;2024-03-17T09:09:43;4.40;;;4.00;;
50012;SDS011;35901;48.694;9.476;2024-03-17T09:12:08;4.33;;;4.03;;
50012;SDS011;35901;48.694;9.476;2024-03-17T09:14:34;4.70;;;4.10;;
50012;SDS011;35901;48.694;9.476;2024-03-17T09:17:00;4.40;;;3.40;;
50012;SDS011;35901;48.694;9.476;2024-03-17T09:19:26;4.10;;;3.80;;
50012;SDS011;35901;48.694;9.476;2024-03-17T09:21:54;4.13;;;3.73;;
50012;SDS011;35901;48.694;9.476;2024-03-17T09:24:20;5.17;;;3.53;;
50012;SDS011;35901;48.694;9.476;2024-03-17T09:26:46;5.17;;;2.90;;
50012;SDS011;35901;48.694;9.476;2024-03-17T09:29:12;3.73;;;3.40;;
50012;SDS011;35901;48.694;9.476;2024-03-17T09:31:40;3.60;;;3.30;;
50012;SDS011;35901;48.694;9.476;2024-03-17T09:34:06;3.07;;;2.80;;
50012;SDS011;35901;48.694;9.476;2024-03-17T09:36:33;3.80;;;3.10;;
50012;SDS011;35901;48.694;9.476;2024-03-17T09:38:59;3.30;;;2.80;;
50012;SDS011;35901;48.694;9.476;2024-03-17T09:41:29;3.10;;;2.90;;
50012;SDS011;35901;48.694;9.476;2024-03-17T09:43:56;4.00;;;3.30;;
50012;SDS011;35901;48.694;9.476;2024-03-17T09:46:26;5.00;;;3.70;;
50012;SDS011;35901;48.694;9.476;2024-03-17T09:48:54;3.87;;;3.57;;
50012;SDS011;35901;48.694;9.476;2024-03-17T09:51:21;3.63;;;3.33;;
50012;SDS011;35901;48.694;9.476;2024-03-17T09:53:48;3.10;;;2.90;;
50012;SDS011;35901;48.694;9.476;2024-03-17T09:56:15;3.77;;;3.40;;
50012;SDS011;35901;48.694;9.476;2024-03-17T09:58:44;3.37;;;3.07;;
50012;SDS011;35901;48.694;9.476;2024-03-17T10:01:10;3.40;;;3.10;;
50012;SDS011;35901;48.694;9.476;2024-03-17T10:03:40;3.13;;;2.83;;
50012;SDS011;35901;48.694;9.476;2024-03-17T10:06:11;3.37;;;3.07;;
50012;SDS011;35901;48.694;9.476;2024-03-17T10:11:20;3.03;;;2.67;;
50012;SDS011;35901;48.694;9.476;2024-03-17T10:13:58;2.77;;;2.37;;
50012;SDS011;35901;48.694;9.476;2024-03-17T10:16:25;3.00;;;2.80;;
50012;SDS011;35901;48.694;9.476;2024-03-17T10:21:40;2.87;;;2.67;;
50012;SDS011;35901;48.694;9.476;2024-03-17T10:24:13;3.07;;;2.83;;
50012;SDS011;35901;48.694;9.476;2024-03-17T10:26:47;3.30;;;2.70;;
50012;SDS011;35901;48.694;9.476;2024-03-17T10:29:24;2.23;;;1.97;;
50012;SDS011;35901;48.694;9.476;2024-03-17T10:31:57;3.23;;;2.50;;
50012;SDS011;35901;48.694;9.476;2024-03-17T10:34:43;3.63;;;2.47;;
50012;SDS011;35901;48.694;9.476;2024-03-17T10:37:20;2.27;;;2.00;;
50012;SDS011;35901;48.694;9.476;2024-03-17T10:39:51;2.30;;;2.13;;
50012;SDS011;35901;48.694;9.476;2024-03-17T10:42:27;3.80;;;2.30;;
50012;SDS011;35901;48.694;9.476;2024-03-17T10:44:53;3.17;;;2.43;;
50012;SDS011;35901;48.694;9.476;2024-03-17T10:47:27;2.67;;;2.43;;
50012;SDS011;35901;48.694;9.476;2024-03-17T10:49:54;2.40;;;2.20;;
50012;SDS011;35901;48.694;9.476;2024-03-17T10:52:24;2.73;;;2.53;;
50012;SDS011;35901;48.694;9.476;2024-03-17T10:54:52;2.57;;;2.37;;
50012;SDS011;35901;48.694;9.476;2024-03-17T11:00:00;2.40;;;2.20;;
50012;SDS011;35901;48.694;9.476;2024-03-17T11:02:30;2.20;;;1.97;;
50012;SDS011;35901;48.694;9.476;2024-03-17T11:04:58;2.60;;;2.40;;
50012;SDS011;35901;48.694;9.476;2024-03-17T11:07:25;3.30;;;2.50;;
50012;SDS011;35901;48.694;9.476;2024-03-17T11:09:52;2.70;;;2.33;;
50012;SDS011;35901;48.694;9.476;2024-03-17T11:12:40;1.70;;;1.60;;
50012;SDS011;35901;48.694;9.476;2024-03-17T11:20:13;2.40;;;2.07;;
50012;SDS011;35901;48.694;9.476;2024-03-17T11:22:42;1.60;;;1.50;;
50012;SDS011;35901;48.694;9.476;2024-03-17T11:44:13;3.37;;;1.60;;
50012;SDS011;35901;48.694;9.476;2024-03-17T11:46:58;2.77;;;1.60;;
50012;SDS011;35901;48.694;9.476;2024-03-17T11:49:31;3.23;;;1.67;;
50012;SDS011;35901;48.694;9.476;2024-03-17T11:52:11;1.90;;;1.43;;
50012;SDS011;35901;48.694;9.476;2024-03-17T11:54:39;2.40;;;1.67;;
50012;SDS011;35901;48.694;9.476;2024-03-17T11:59:35;3.30;;;1.70;;
50012;SDS011;35901;48.694;9.476;2024-03-17T12:02:02;3.23;;;1.50;;
50012;SDS011;35901;48.694;9.476;2024-03-17T12:04:40;1.83;;;1.43;;
50012;SDS011;35901;48.694;9.476;2024-03-17T12:07:08;2.30;;;1.50;;
50012;SDS011;35901;48.694;9.476;2024-03-17T12:09:40;3.37;;;1.73;;
50012;SDS011;35901;48.694;9.476;2024-03-17T12:12:12;2.63;;;1.67;;
50012;SDS011;35901;48.694;9.476;2024-03-17T12:14:44;2.70;;;1.67;;
50012;SDS011;35901;48.694;9.476;2024-03-17T12:17:11;2.03;;;1.47;;
50012;SDS011;35901;48.694;9.476;2024-03-17T12:19:39;2.03;;;1.70;;
50012;SDS011;35901;48.694;9.476;2024-03-17T12:22:06;2.17;;;1.70;;
50012;SDS011;35901;48.694;9.476;2024-03-17T12:24:32;2.80;;;1.67;;
50012;SDS011;35901;48.694;9.476;2024-03-17T12:27:00;1.83;;;1.40;;
50012;SDS011;35901;48.694;9.476;2024-03-17T12:32:25;2.47;;;1.80;;
50012;SDS011;35901;48.694;9.476;2024-03-17T12:37:24;4.33;;;1.70;;
50012;SDS011;35901;48.694;9.476;2024-03-17T12:39:56;2.27;;;1.80;;
50012;SDS011;35901;48.694;9.476;2024-03-17T12:42:23;2.70;;;1.83;;
50012;SDS011;35901;48.694;9.476;2024-03-17T12:44:51;2.67;;;2.00;;
50012;SDS011;35901;48.694;9.476;2024-03-17T12:49:53;2.87;;;1.90;;
50012;SDS011;35901;48.694;9.476;2024-03-17T12:52:24;4.30;;;2.10;;
50012;SDS011;35901;48.694;9.476;2024-03-17T12:54:57;2.37;;;2.00;;
50012;SDS011;35901;48.694;9.476;2024-03-17T12:57:46;2.60;;;1.87;;
50012;SDS011;35901;48.694;9.476;2024-03-17T13:03:38;3.37;;;2.23;;
50012;SDS011;35901;48.694;9.476;2024-03-17T13:06:05;2.30;;;2.00;;
50012;SDS011;35901;48.694;9.476;2024-03-17T13:08:32;2.50;;;2.13;;
50012;SDS011;35901;48.694;9.476;2024-03-17T13:10:58;2.80;;;2.10;;
50012;SDS011;35901;48.694;9.476;2024-03-17T13:13:24;2.63;;;2.27;;
50012;SDS011;35901;48.694;9.476;2024-03-17T13:15:50;4.53;;;2.00;;
50012;SDS011;35901;48.694;9.476;2024-03-17T13:18:17;2.03;;;1.47;;
50012;SDS011;35901;48.694;9.476;2024-03-17T13:20:48;3.10;;;1.80;;
50012;SDS011;35901;48.694;9.476;2024-03-17T13:23:15;3.13;;;1.97;;
50012;SDS011;35901;48.694;9.476;2024-03-17T13:25:41;2.73;;;1.77;;
50012;SDS011;35901;48.694;9.476;2024-03-17T13:28:08;2.90;;;1.93;;
50012;SDS011;35901;48.694;9.476;2024-03-17T13:30:35;2.50;;;1.80;;
50012;SDS011;35901;48.694;9.476;2024-03-17T13:33:07;4.37;;;1.90;;
50012;SDS011;35901;48.694;9.476;2024-03-17T13:35:36;2.63;;;1.50;;
50012;SDS011;35901;48.694;9.476;2024-03-17T13:38:07;1.60;;;1.50;;
50012;SDS011;35901;48.694;9.476;2024-03-17T13:40:35;2.07;;;1.80;;
50012;SDS011;35901;48.694;9.476;2024-03-17T13:43:03;2.83;;;1.70;;
50012;SDS011;35901;48.694;9.476;2024-03-17T13:45:51;2.40;;;1.70;;
50012;SDS011;35901;48.694;9.476;2024-03-17T13:48:16;1.80;;;1.60;;
50012;SDS011;35901;48.694;9.476;2024-03-17T13:50:41;2.33;;;1.63;;
50012;SDS011;35901;48.694;9.476;2024-03-17T13:53:10;1.90;;;1.80;;
50012;SDS011;35901;48.694;9.476;2024-03-17T13:55:37;1.53;;;1.43;;
50012;SDS011;35901;48.694;9.476;2024-03-17T13:58:03;2.83;;;1.90;;
50012;SDS011;35901;48.694;9.476;2024-03-17T14:00:29;2.03;;;1.47;;
50012;SDS011;35901;48.694;9.476;2024-03-17T14:02:56;3.43;;;1.70;;
50012;SDS011;35901;48.694;9.476;2024-03-17T14:07:52;2.80;;;1.77;;
50012;SDS011;35901;48.694;9.476;2024-03-17T14:10:19;1.73;;;1.30;;
50012;SDS011;35901;48.694;9.476;2024-03-17T14:12:46;3.07;;;1.63;;
50012;SDS011;35901;48.694;9.476;2024-03-17T14:15:13;1.70;;;1.57;;
50012;SDS011;35901;48.694;9.476;2024-03-17T14:17:40;3.10;;;1.60;;
50012;SDS011;35901;48.694;9.476;2024-03-17T14:20:07;2.67;;;1.77;;
50012;SDS011;35901;48.694;9.476;2024-03-17T14:22:36;3.30;;;2.07;;
50012;SDS011;35901;48.694;9.476;2024-03-17T14:25:06;2.10;;;1.63;;
50012;SDS011;35901;48.694;9.476;2024-03-17T14:27:37;1.70;;;1.60;;
50012;SDS011;35901;48.694;9.476;2024-03-17T14:30:04;3.73;;;1.77;;
50012;SDS011;35901;48.694;9.476;2024-03-17T14:32:31;2.20;;;1.50;;
50012;SDS011;35901;48.694;9.476;2024-03-17T14:34:57;2.00;;;1.43;;
50012;SDS011;35901;48.694;9.476;2024-03-17T14:37:22;1.60;;;1.40;;
50012;SDS011;35901;48.694;9.476;2024-03-17T14:39:49;1.57;;;1.40;;
50012;SDS011;35901;48.694;9.476;2024-03-17T14:42:16;1.77;;;1.47;;
50012;SDS011;35901;48.694;9.476;2024-03-17T14:44:42;1.50;;;1.40;;
50012;SDS011;35901;48.694;9.476;2024-03-17T14:47:08;2.93;;;1.33;;
50012;SDS011;35901;48.694;9.476;2024-03-17T14:49:36;2.33;;;1.40;;
50012;SDS011;35901;48.694;9.476;2024-03-17T14:52:02;2.00;;;1.47;;
50012;SDS011;35901;48.694;9.476;2024-03-17T14:54:27;1.80;;;1.60;;
50012;SDS011;35901;48.694;9.476;2024-03-17T14:56:53;1.40;;;1.20;;
50012;SDS011;35901;48.694;9.476;2024-03-17T14:59:19;1.83;;;1.53;;
50012;SDS011;35901;48.694;9.476;2024-03-17T15:01:45;1.50;;;1.40;;
50012;SDS011;35901;48.694;9.476;2024-03-17T15:04:12;1.93;;;1.40;;
50012;SDS011;35901;48.694;9.476;2024-03-17T15:06:38;1.50;;;1.20;;
50012;SDS011;35901;48.694;9.476;2024-03-17T15:09:24;1.50;;;1.40;;
50012;SDS011;35901;48.694;9.476;2024-03-17T15:11:49;1.40;;;1.30;;
50012;SDS011;35901;48.694;9.476;2024-03-17T15:14:15;1.80;;;1.50;;
50012;SDS011;35901;48.694;9.476;2024-03-17T15:16:40;1.67;;;1.47;;
50012;SDS011;35901;48.694;9.476;2024-03-17T15:19:07;1.20;;;1.10;;
50012;SDS011;35901;48.694;9.476;2024-03-17T15:21:33;2.37;;;1.43;;
50012;SDS011;35901;48.694;9.476;2024-03-17T15:23:59;1.87;;;1.30;;
50012;SDS011;35901;48.694;9.476;2024-03-17T15:26:28;2.30;;;1.30;;